Terminal Aerodrome Forecast
Issued by NWS Wilmington, NC

Home | Current Version | Previous Version | Text Only | Print | Product List | Glossary On
Versions: 1 2 3 4 5 6 7 8 9 10 11 12 13 14 15 16 17
000
FTUS42 KILM 300800 AAA
TAFMYR
TAF AMD
KMYR 300838Z 3009/0106 03007KT P6SM BKN050
      TEMPO 3010/3012 BKN005
     FM301300 06010KT P6SM SCT035
      AMD LTD TO CLD VIS AND WIND TIL 301100=

USA.gov is the U.S. government's official web portal to all federal, state and local government web resources and services.